Nearby METAR Reports

 

EGPK - Prestwick(Civ/Na, United Kingdom
Distance from station: ESE 23mi, 38km
Updated: 20/04/2024 23:50
Clear
Clear
 Wind from varies
Wind: varies 2 mph , 4 km/h
Temperature: 10°C
Dew Point: 6°C
Humidity: 76%
Barometer: 1030 hPa
Summary: Clear
Visibility: greater than 7 miles , 10 km
2024/04/20 22:50 EGPK 202250Z VRB02KT CAVOK 10/06 Q1030
EGEC - Campbeltown, United Kingdom
Distance from station: WSW 24mi, 39km
Updated: 19/04/2024 16:50
NOT Current
Few Clouds
Few Clouds
 Wind from WNW
Wind: WNW 14 mph , 22 km/h
Temperature: 12°C
Dew Point: 5°C
Humidity: 63%
Barometer: 1023 hPa
Clouds: Few Clouds
Visibility: 6 miles , 10 km
Cloud details: Few Clouds 671 m
2024/04/19 15:50 EGEC 191550Z 30012KT 9999 FEW022 12/05 Q1023
EGPF - Glasgow Airport, United Kingdom
Distance from station: ENE 33mi, 54km
Updated: 20/04/2024 23:50
Clear
Clear
 Wind from NE
Wind: NE 10 mph , 17 km/h
Temperature: 8°C
Wind Chill: 5°C
Dew Point: 4°C
Humidity: 76%
Barometer: 1031 hPa
Clouds: Clear
Visibility: 6 miles , 10 km
2024/04/20 22:50 EGPF 202250Z AUTO 05009KT 9999 NCD 08/04 Q1031
 
EGPI - Islay/Port Ellen, United Kingdom
Distance from station: W 44mi, 70km
Updated: 20/04/2024 13:20
NOT Current
Few Clouds
Few Clouds
 Wind from NNW
Wind: NNW 10 mph , 17 km/h
Temperature: 12°C
Dew Point: 6°C
Humidity: 67%
Barometer: 1030 hPa
Clouds: Few Clouds
Visibility: 6 miles , 10 km
Cloud details: Few Clouds 671 m
2024/04/20 12:20 EGPI 201220Z 34009KT 9999 FEW022 12/06 Q1030
EGEO - Oban Airport, United Kingdom
Distance from station: N 60mi, 97km
Updated: 20/04/2024 16:50
NOT Current
Clear
Clear
 Wind from W
Wind: W 10 mph , 17 km/h
Temperature: 13°C
Dew Point: 6°C
Humidity: 63%
Barometer: 1029 hPa
Summary: Clear
Visibility: greater than 7 miles , 10 km
2024/04/20 15:50 EGEO 201550Z 27009KT CAVOK 13/06 Q1029
EGPH - Edinburgh Airpor, United Kingdom
Distance from station: ENE 73mi, 118km
Updated: 20/04/2024 23:50
Mostly cloudy
Mostly cloudy
 Wind from NE
Wind: NE 9 mph , 15 km/h
Temperature: 7°C
Wind Chill: 4°C
Dew Point: 3°C
Humidity: 76%
Barometer: 1031 hPa
Clouds: Mostly cloudy
Visibility: 6 miles , 10 km
Cloud details: Mostly cloudy 1341 m
2024/04/20 22:50 EGPH 202250Z 05008KT 9999 BKN044 07/03 Q1031
 
EGAC - Belfast Harbour, United Kingdom
Distance from station: SSW 74mi, 119km
Updated: 20/04/2024 23:50
Light drizzle, Clear
Light drizzle, Clear
 Wind from SSW
Wind: SSW 2 mph , 4 km/h
Temperature: 8°C
Dew Point: 4°C
Humidity: 76%
Barometer: 1031 hPa
Summary: Light Drizzle
Clouds: Clear
Visibility: 6 miles , 10 km
2024/04/20 22:50 EGAC 202250Z AUTO 21002KT 9999 -DZ NCD 08/04 Q1031
EGAA - Belfast/Aldergro, United Kingdom
Distance from station: SSW 80mi, 128km
Updated: 20/04/2024 23:50
Clear
Clear
 Wind from SSE
Wind: SSE 2 mph , 4 km/h
Temperature: 4°C
Dew Point: 2°C
Humidity: 87%
Barometer: 1031 hPa
Clouds: Clear
Visibility: 6 miles , 10 km
2024/04/20 22:50 EGAA 202250Z AUTO 15002KT 9999 NCD 04/02 Q1031
EGAE - Eglinton/Londond, United Kingdom
Distance from station: WSW 88mi, 142km
Updated: 20/04/2024 16:20
NOT Current
Few Clouds
Few Clouds
 Wind from NE
Wind: NE 13 mph , 20 km/h
Temperature: 13°C
Dew Point: 6°C
Humidity: 63%
Barometer: 1030 hPa
Clouds: Few Clouds
Visibility: 6 miles , 10 km
Cloud details: Few Clouds 975 m
2024/04/20 15:20 EGAE 201520Z 05011KT 9999 FEW032 13/06 Q1030
 
EGPU - Tiree Island, United Kingdom
Distance from station: NW 91mi, 146km
Updated: 20/04/2024 23:20
Clear
Clear
 Wind from WNW
Wind: WNW 2 mph , 4 km/h
Temperature: 5°C
Dew Point: 4°C
Humidity: 93%
Barometer: 1031 hPa
Summary: Clear
Visibility: greater than 7 miles , 10 km
2024/04/20 22:20 EGPU 202220Z 30002KT CAVOK 05/04 Q1031
EGPN - Dundee/Riverside, United Kingdom
Distance from station: NE 100mi, 162km
Updated: 20/04/2024 15:50
NOT Current
Mostly cloudy
Mostly cloudy
 Wind from E
Wind: E 8 mph , 13 km/h
Temperature: 9°C
Wind Chill: 7°C
Dew Point: 3°C
Humidity: 66%
Barometer: 1030 hPa
Clouds: Mostly cloudy
Visibility: 6 miles , 10 km
Cloud details: Few Clouds 610 m
Mostly cloudy 1494 m
2024/04/20 14:50 EGPN 201450Z 10007KT 9999 FEW020 BKN049 09/03 Q1030